Archival Weather

Chicago O'Hare International

Chicago, Illinois (KORD)

Report from: Monday, January 23, 2023 1:51 AM CST
Current time: Thursday, July 18, 2024 9:08 PM CDT

Current weather – Weather history – Daily summaries
Weather forecast

Present weatherFZDZSN, mist
Temperature-4.4°C (24.1°F)
Wind chill-10.5°C (13.1°F)
Dew point-6.7°C (19.9°F)
Winds 10 kts (5.1 m/s, 11.5 mph) Northwest (310°)
Visibility3 mi. (4.8 km)
Clouds Ceiling: Overcast 500 ft. (152 m)
Altimeter29.98 in.Hg (1015 mB)
PrecipitiationTrace
Precip. events Snow pellets ended 6:59 AM
Relative humidity84 %
Density altitude-2,433 ft. (-742 m)
Sea-level pressure101.6 kPa (1016 mB, 30.01 in.Hg)
Remarks System requires maintenance
Automated weather observing station with precipitation discriminator
Flight conditions Instrument Meteorological Conditions
Raw dataKORD 230751Z 31010KT 3SM -FZDZSN BR OVC005 M04/M07 A2998 RMK AO2 GSE0659 SLP161 P0000 I1000 T10441067 $
An error has occurred. This application may no longer respond until reloaded. Reload 🗙